createdAt,value
2023-01-07T00:01:52.659Z,98565.09
2023-01-07T00:04:21.834Z,98565.09
2023-01-07T00:06:53.389Z,98558.22
2023-01-07T00:09:24.422Z,98569.66
2023-01-07T00:11:53.980Z,98563.81
2023-01-07T00:14:23.623Z,98558.56
2023-01-07T00:16:53.487Z,98561.81
2023-01-07T00:19:24.745Z,98561.03
2023-01-07T00:21:55.527Z,98560.22
2023-01-07T00:24:26.755Z,98566.25
2023-01-07T00:26:56.649Z,98568.22
2023-01-07T00:29:25.540Z,98568.22
2023-01-07T00:31:55.516Z,98562.16
2023-01-07T00:34:25.887Z,98558.56
2023-01-07T00:37:17.499Z,98557.75
2023-01-07T00:39:48.215Z,98551.72
2023-01-07T00:42:35.089Z,98550.75
2023-01-07T00:45:04.579Z,98545.69
2023-01-07T00:47:34.069Z,98543.88
2023-01-07T00:50:04.091Z,98539.66
2023-01-07T00:52:33.018Z,98536.84
2023-01-07T00:55:03.848Z,98537.88
2023-01-07T00:57:34.394Z,98538.03
2023-01-07T01:00:03.345Z,98535.41
2023-01-07T01:02:33.593Z,98535.41
2023-01-07T01:05:02.604Z,98531.16
2023-01-07T01:07:33.265Z,98525.13
2023-01-07T01:10:04.897Z,98525.94
2023-01-07T01:12:35.929Z,98516.28
2023-01-07T01:15:08.444Z,98517.47
2023-01-07T01:17:38.534Z,98511.59
2023-01-07T01:20:11.310Z,98509.16
2023-01-07T01:22:41.422Z,98508.34
2023-01-07T01:25:13.886Z,98503.28
2023-01-07T01:27:44.693Z,98501.66
2023-01-07T01:30:15.621Z,98493.00
2023-01-07T01:32:46.083Z,98499.88
2023-01-07T01:35:16.215Z,98498.25
2023-01-07T01:37:44.655Z,98495.63
2023-01-07T01:40:15.063Z,98487.13
2023-01-07T01:42:45.061Z,98493.34
2023-01-07T01:45:15.043Z,98494.34
2023-01-07T01:47:50.673Z,98495.31
2023-01-07T01:50:27.897Z,98493.03
2023-01-07T01:53:04.200Z,98490.44
2023-01-07T01:55:39.867Z,98495.03
2023-01-07T01:58:13.351Z,98482.31
2023-01-07T02:00:44.821Z,98479.22
2023-01-07T02:03:20.249Z,98486.25
2023-01-07T02:05:50.343Z,98492.44
2023-01-07T02:08:22.260Z,98491.16
2023-01-07T02:11:05.933Z,98490.88
2023-01-07T02:13:55.692Z,98493.81
2023-01-07T02:16:37.851Z,98489.91
2023-01-07T02:19:44.142Z,98485.66
2023-01-07T02:22:35.027Z,98483.22
2023-01-07T02:25:43.258Z,98482.09
2023-01-07T02:29:13.210Z,98482.09
2023-01-07T02:32:19.054Z,98470.81
2023-01-07T02:35:04.986Z,98470.00
2023-01-07T02:37:46.302Z,98475.22
2023-01-07T02:40:25.077Z,98471.16
2023-01-07T02:43:05.486Z,98464.78
2023-01-07T02:45:46.362Z,98456.31
2023-01-07T02:48:22.344Z,98450.28
2023-01-07T02:50:51.279Z,98448.66
2023-01-07T02:53:23.532Z,98446.03
2023-01-07T02:56:13.106Z,98452.91
2023-01-07T02:59:56.215Z,98442.59
2023-01-07T03:03:00.185Z,98431.69
2023-01-07T03:05:46.327Z,98420.63
2023-01-07T03:08:44.062Z,98422.09
2023-01-07T03:11:14.957Z,98427.50
2023-01-07T03:14:06.615Z,98426.69
2023-01-07T03:16:44.310Z,98431.28
2023-01-07T03:19:19.857Z,98426.69
2023-01-07T03:21:54.262Z,98424.91
2023-01-07T03:24:27.786Z,98424.06
2023-01-07T03:27:01.707Z,98423.91
2023-01-07T03:29:33.025Z,98409.22
2023-01-07T03:32:12.760Z,98405.97
2023-01-07T03:34:44.325Z,98408.09
2023-01-07T03:37:20.652Z,98410.09
2023-01-07T03:39:51.035Z,98411.72
2023-01-07T03:42:46.503Z,98404.53
2023-01-07T03:45:18.909Z,98394.91
2023-01-07T03:47:52.023Z,98395.72
2023-01-07T03:50:22.360Z,98401.56
2023-01-07T03:52:53.178Z,98399.78
2023-01-07T03:55:22.331Z,98390.31
2023-01-07T03:57:51.342Z,98393.72
2023-01-07T04:00:20.647Z,98391.13
2023-01-07T04:02:51.111Z,98389.03
2023-01-07T04:05:20.392Z,98383.63
2023-01-07T04:07:52.147Z,98382.66
2023-01-07T04:10:22.811Z,98376.78
2023-01-07T04:12:52.192Z,98381.22
2023-01-07T04:15:23.029Z,98377.47
2023-01-07T04:17:52.548Z,98372.25
2023-01-07T04:20:21.636Z,98373.41
2023-01-07T04:22:51.909Z,98371.78
2023-01-07T04:25:21.523Z,98361.53
2023-01-07T04:27:51.044Z,98362.16
2023-01-07T04:30:20.277Z,98357.75
2023-01-07T04:32:50.242Z,98353.34
2023-01-07T04:35:21.077Z,98349.59
2023-01-07T04:37:52.050Z,98348.78
2023-01-07T04:40:21.668Z,98347.47
2023-01-07T04:42:52.647Z,98347.47
2023-01-07T04:45:23.147Z,98341.44
2023-01-07T04:47:56.467Z,98340.66
2023-01-07T04:50:27.176Z,98330.38
2023-01-07T04:52:57.927Z,98337.22
2023-01-07T04:55:26.879Z,98326.94
2023-01-07T04:57:55.829Z,98326.59
2023-01-07T05:00:25.989Z,98316.16
2023-01-07T05:02:55.890Z,98310.94
2023-01-07T05:05:25.955Z,98309.97
2023-01-07T05:07:56.996Z,98319.78
2023-01-07T05:10:26.044Z,98303.13
2023-01-07T05:12:57.020Z,98307.53
2023-01-07T05:15:26.356Z,98304.28
2023-01-07T05:17:57.055Z,98294.03
2023-01-07T05:20:26.294Z,98288.97
2023-01-07T05:22:57.692Z,98292.41
2023-01-07T05:25:27.188Z,98293.72
2023-01-07T05:27:56.038Z,98288.16
2023-01-07T05:30:24.919Z,98285.56
2023-01-07T05:32:54.397Z,98283.66
2023-01-07T05:35:23.386Z,98289.47
2023-01-07T05:37:52.317Z,98285.59
2023-01-07T05:40:23.775Z,98281.19
2023-01-07T05:42:53.911Z,98283.66
2023-01-07T05:45:23.480Z,98290.03
2023-01-07T05:47:54.039Z,98287.56
2023-01-07T05:50:24.643Z,98281.06
2023-01-07T05:52:54.115Z,98277.84
2023-01-07T05:55:24.534Z,98279.16
2023-01-07T05:57:54.542Z,98277.16
2023-01-07T06:00:25.409Z,98278.50
2023-01-07T06:02:55.445Z,98267.28
2023-01-07T06:05:24.844Z,98274.91
2023-01-07T06:07:54.372Z,98262.53
2023-01-07T06:10:25.120Z,98261.88
2023-01-07T06:12:55.081Z,98257.97
2023-01-07T06:15:25.137Z,98255.38
2023-01-07T06:17:54.784Z,98250.81
2023-01-07T06:20:24.441Z,98256.03
2023-01-07T06:22:55.497Z,98256.66
2023-01-07T06:25:27.582Z,98255.69
2023-01-07T06:27:58.640Z,98254.84
2023-01-07T06:30:27.566Z,98259.25
2023-01-07T06:32:57.004Z,98246.56
2023-01-07T06:35:25.975Z,98247.06
2023-01-07T06:37:55.936Z,98241.38
2023-01-07T06:40:26.706Z,98236.00
2023-01-07T06:42:57.550Z,98226.56
2023-01-07T06:45:27.569Z,98229.00
2023-01-07T06:47:58.044Z,98226.22
2023-01-07T06:50:27.665Z,98220.84
2023-01-07T06:52:58.399Z,98213.84
2023-01-07T06:55:29.273Z,98207.16
2023-01-07T06:57:59.831Z,98205.69
2023-01-07T07:00:30.085Z,98208.50
2023-01-07T07:02:59.705Z,98203.91
2023-01-07T07:05:31.439Z,98210.09
2023-01-07T07:08:01.448Z,98210.09
2023-01-07T07:10:32.266Z,98216.13
2023-01-07T07:13:02.835Z,98209.31
2023-01-07T07:15:33.411Z,98203.28
2023-01-07T07:18:02.356Z,98208.50
2023-01-07T07:20:32.347Z,98202.47
2023-01-07T07:23:03.546Z,98194.34
2023-01-07T07:25:33.826Z,98196.13
2023-01-07T07:28:03.179Z,98192.72
2023-01-07T07:30:46.437Z,98182.09
2023-01-07T07:33:19.825Z,98192.88
2023-01-07T07:35:49.681Z,98186.84
2023-01-07T07:38:19.270Z,98179.03
2023-01-07T07:40:50.415Z,98178.69
2023-01-07T07:43:20.464Z,98181.13
2023-01-07T07:45:50.534Z,98178.88
2023-01-07T07:48:19.960Z,98168.25
2023-01-07T07:50:52.648Z,98169.06
2023-01-07T07:53:22.539Z,98165.50
2023-01-07T07:55:53.853Z,98166.13
2023-01-07T07:58:22.857Z,98154.72
2023-01-07T08:00:52.245Z,98159.31
2023-01-07T08:03:22.242Z,98156.22
2023-01-07T08:05:52.242Z,98150.19
2023-01-07T08:08:22.808Z,98147.41
2023-01-07T08:10:56.526Z,98141.22
2023-01-07T08:13:25.947Z,98144.16
2023-01-07T08:15:55.947Z,98137.66
2023-01-07T08:18:26.043Z,98127.09
2023-01-07T08:20:56.907Z,98135.69
2023-01-07T08:23:28.644Z,98129.34
2023-01-07T08:26:03.645Z,98130.16
2023-01-07T08:28:33.995Z,98127.00
2023-01-07T08:31:04.492Z,98116.22
2023-01-07T08:33:38.053Z,98111.34
2023-01-07T08:36:21.740Z,98116.56
2023-01-07T08:38:53.813Z,98108.75
2023-01-07T08:41:26.019Z,98114.63
2023-01-07T08:43:55.822Z,98113.28
2023-01-07T08:46:25.903Z,98101.03
2023-01-07T08:48:56.410Z,98102.50
2023-01-07T08:51:26.269Z,98106.72
2023-01-07T08:53:56.575Z,98100.38
2023-01-07T08:56:26.990Z,98088.75
2023-01-07T08:58:56.403Z,98089.56
2023-01-07T09:01:26.555Z,98086.78
2023-01-07T09:03:56.171Z,98089.03
2023-01-07T09:06:25.729Z,98089.84
2023-01-07T09:08:55.780Z,98085.28
2023-01-07T09:11:26.630Z,98075.66
2023-01-07T09:13:56.721Z,98069.88
2023-01-07T09:16:25.788Z,98072.94
2023-01-07T09:18:55.828Z,98070.81
2023-01-07T09:21:25.208Z,98069.47
2023-01-07T09:23:55.307Z,98069.91
2023-01-07T09:26:25.177Z,98062.72
2023-01-07T09:28:56.312Z,98067.75
2023-01-07T09:31:27.096Z,98065.59
2023-01-07T09:33:58.203Z,98063.63
2023-01-07T09:36:28.104Z,98062.03
2023-01-07T09:38:56.953Z,98055.78
2023-01-07T09:41:41.368Z,98049.44
2023-01-07T09:44:40.811Z,98042.88
2023-01-07T09:47:12.792Z,98036.63
2023-01-07T09:49:43.327Z,98036.25
2023-01-07T09:52:17.598Z,98030.72
2023-01-07T09:54:51.750Z,98022.31
2023-01-07T09:57:22.240Z,98026.19
2023-01-07T09:59:51.660Z,98019.34
2023-01-07T10:02:39.871Z,98020.59
2023-01-07T10:05:34.041Z,98013.75
2023-01-07T10:08:30.261Z,98018.44
2023-01-07T10:11:15.963Z,98017.09
2023-01-07T10:14:04.509Z,98019.53
2023-01-07T10:16:46.749Z,98014.75
2023-01-07T10:19:28.382Z,98015.53
2023-01-07T10:22:05.686Z,98011.34
2023-01-07T10:24:42.535Z,98000.69
2023-01-07T10:27:17.726Z,98002.16
2023-01-07T10:29:54.275Z,97996.94
2023-01-07T10:32:30.962Z,97992.31
2023-01-07T10:35:02.813Z,97991.94
2023-01-07T10:37:35.408Z,97986.09
2023-01-07T10:40:33.797Z,97970.06
2023-01-07T10:43:20.982Z,97971.31
2023-01-07T10:46:17.428Z,97966.34
2023-01-07T10:49:27.731Z,97960.75
2023-01-07T10:52:18.195Z,97957.16
2023-01-07T10:55:20.115Z,97954.53
2023-01-07T10:57:50.074Z,97946.69
2023-01-07T11:00:20.431Z,97932.66
2023-01-07T11:02:57.891Z,97937.06
2023-01-07T11:05:37.691Z,97939.47
2023-01-07T11:08:17.793Z,97925.63
2023-01-07T11:10:48.028Z,97924.25
2023-01-07T11:13:24.786Z,97920.47
2023-01-07T11:15:59.190Z,97914.22
2023-01-07T11:18:40.529Z,97910.81
2023-01-07T11:21:09.632Z,97912.25
2023-01-07T11:23:59.109Z,97909.44
2023-01-07T11:26:32.411Z,97889.97
2023-01-07T11:29:17.416Z,97889.00
2023-01-07T11:31:53.189Z,97883.78
2023-01-07T11:34:29.061Z,97876.75
2023-01-07T11:36:58.080Z,97882.59
2023-01-07T11:39:30.224Z,97877.19
2023-01-07T11:42:24.848Z,97872.59
2023-01-07T11:45:15.062Z,97866.72
2023-01-07T11:47:51.637Z,97859.63
2023-01-07T11:50:31.950Z,97855.22
2023-01-07T11:53:09.977Z,97843.59
2023-01-07T11:55:40.496Z,97835.56
2023-01-07T11:58:27.600Z,97824.75
2023-01-07T12:01:18.385Z,97823.94
2023-01-07T12:04:23.156Z,97814.28
2023-01-07T12:06:57.898Z,97812.50
2023-01-07T12:09:47.043Z,97810.47
2023-01-07T12:12:35.195Z,97803.75
2023-01-07T12:15:10.058Z,97800.81
2023-01-07T12:17:39.852Z,97792.97
2023-01-07T12:20:52.827Z,97787.72
2023-01-07T12:23:39.307Z,97787.34
2023-01-07T12:26:19.656Z,97779.50
2023-01-07T12:29:13.490Z,97776.47
2023-01-07T12:32:00.162Z,97771.66
2023-01-07T12:34:48.786Z,97773.91
2023-01-07T12:37:32.018Z,97771.72
2023-01-07T12:40:23.239Z,97762.06
2023-01-07T12:43:02.062Z,97762.50
2023-01-07T12:45:42.605Z,97763.31
2023-01-07T12:48:26.875Z,97761.69
2023-01-07T12:51:00.911Z,97765.53
2023-01-07T12:53:40.392Z,97758.28
2023-01-07T12:56:18.454Z,97755.50
2023-01-07T12:58:54.333Z,97752.06
2023-01-07T13:01:31.430Z,97756.09
2023-01-07T13:04:17.145Z,97752.88
2023-01-07T13:06:56.160Z,97750.44
2023-01-07T13:09:35.474Z,97753.31
2023-01-07T13:12:42.506Z,97748.50
2023-01-07T13:15:21.952Z,97743.69
2023-01-07T13:17:54.032Z,97739.47
2023-01-07T13:20:51.473Z,97735.66
2023-01-07T13:23:29.346Z,97734.84
2023-01-07T13:26:25.515Z,97729.81
2023-01-07T13:29:14.442Z,97733.84
2023-01-07T13:32:29.439Z,97736.84
2023-01-07T13:35:27.055Z,97735.47
2023-01-07T13:38:16.033Z,97722.41
2023-01-07T13:41:15.938Z,97727.22
2023-01-07T13:44:15.230Z,97721.41
2023-01-07T13:46:46.880Z,97725.59
2023-01-07T13:49:31.895Z,97709.09
2023-01-07T13:52:19.656Z,97721.41
2023-01-07T13:55:00.606Z,97718.78
2023-01-07T13:57:46.999Z,97718.59
2023-01-07T14:00:48.766Z,97716.22
2023-01-07T14:03:47.360Z,97706.34
2023-01-07T14:06:42.457Z,97708.56
2023-01-07T14:09:20.641Z,97694.28
2023-01-07T14:12:38.509Z,97690.66
2023-01-07T14:16:16.076Z,97685.44
2023-01-07T14:19:12.541Z,97677.00
2023-01-07T14:22:14.828Z,97682.22
2023-01-07T14:25:40.726Z,97681.59
2023-01-07T14:28:51.793Z,97682.22
2023-01-07T14:31:28.601Z,97683.03
2023-01-07T14:34:03.929Z,97684.63
2023-01-07T14:37:12.260Z,97676.59
2023-01-07T14:39:44.811Z,97687.06
2023-01-07T14:42:44.927Z,97687.06
2023-01-07T14:45:55.487Z,97681.41
2023-01-07T14:48:38.278Z,97688.28
2023-01-07T14:51:37.439Z,97691.66
2023-01-07T14:54:46.501Z,97693.88
2023-01-07T14:57:38.430Z,97701.53
2023-01-07T15:00:50.007Z,97703.31
2023-01-07T15:04:04.960Z,97685.41
2023-01-07T15:06:39.858Z,97680.19
2023-01-07T15:09:32.724Z,97689.03
2023-01-07T15:12:28.376Z,97681.41
2023-01-07T15:15:29.824Z,97678.56
2023-01-07T15:17:59.743Z,97677.53
2023-01-07T15:20:49.238Z,97677.72
2023-01-07T15:23:31.079Z,97671.47
2023-01-07T15:26:12.014Z,97678.09
2023-01-07T15:28:50.245Z,97679.88
2023-01-07T15:31:30.937Z,97670.81
2023-01-07T15:34:10.637Z,97674.44
2023-01-07T15:36:45.884Z,97672.00
2023-01-07T15:39:25.000Z,97667.16
2023-01-07T15:41:57.426Z,97652.06
2023-01-07T15:44:37.763Z,97654.81
2023-01-07T15:47:27.833Z,97649.31
2023-01-07T15:49:57.950Z,97654.69
2023-01-07T15:52:29.250Z,97655.06
2023-01-07T15:55:14.771Z,97655.03
2023-01-07T15:57:44.851Z,97655.97
2023-01-07T16:00:17.346Z,97661.97
2023-01-07T16:02:46.608Z,97657.53
2023-01-07T16:05:19.135Z,97648.06
2023-01-07T16:07:56.654Z,97642.75
2023-01-07T16:10:29.691Z,97642.50
2023-01-07T16:13:01.402Z,97632.03
2023-01-07T16:15:33.521Z,97626.50
2023-01-07T16:18:04.667Z,97624.28
2023-01-07T16:20:37.619Z,97615.41
2023-01-07T16:23:32.492Z,97623.78
2023-01-07T16:26:10.026Z,97620.53
2023-01-07T16:28:45.542Z,97624.06
2023-01-07T16:31:17.924Z,97626.41
2023-01-07T16:33:52.505Z,97624.56
2023-01-07T16:36:26.922Z,97626.56
2023-01-07T16:39:06.840Z,97627.09
2023-01-07T16:41:37.475Z,97629.44
2023-01-07T16:44:09.281Z,97630.63
2023-01-07T16:46:42.987Z,97631.81
2023-01-07T16:49:24.104Z,97619.44
2023-01-07T16:51:56.895Z,97622.66
2023-01-07T16:54:37.400Z,97622.41
2023-01-07T16:57:21.027Z,97619.50
2023-01-07T16:59:54.155Z,97623.34
2023-01-07T17:02:32.465Z,97621.00
2023-01-07T17:05:18.779Z,97613.41
2023-01-07T17:07:51.642Z,97618.94
2023-01-07T17:10:28.835Z,97617.31
2023-01-07T17:13:03.087Z,97605.03
2023-01-07T17:15:40.229Z,97616.00
2023-01-07T17:18:30.759Z,97607.91
2023-01-07T17:21:02.374Z,97605.22
2023-01-07T17:23:42.241Z,97600.66
2023-01-07T17:26:23.475Z,97600.00
2023-01-07T17:28:55.312Z,97596.44
2023-01-07T17:31:25.902Z,97603.63
2023-01-07T17:33:55.074Z,97591.44
2023-01-07T17:36:26.795Z,97591.59
2023-01-07T17:38:56.521Z,97598.78
2023-01-07T17:41:45.049Z,97602.38
2023-01-07T17:44:15.200Z,97599.94
2023-01-07T17:46:45.162Z,97595.75
2023-01-07T17:49:14.202Z,97597.63
2023-01-07T17:51:47.054Z,97596.19
2023-01-07T17:54:22.278Z,97594.41
2023-01-07T17:56:53.828Z,97597.97
2023-01-07T17:59:25.074Z,97592.31
2023-01-07T18:01:57.259Z,97599.31
2023-01-07T18:04:27.305Z,97605.50
2023-01-07T18:06:57.277Z,97587.94
2023-01-07T18:09:27.987Z,97597.97
2023-01-07T18:12:16.056Z,97591.16
2023-01-07T18:14:45.653Z,97587.94
2023-01-07T18:17:15.283Z,97583.53
2023-01-07T18:19:44.974Z,97586.31
2023-01-07T18:22:13.945Z,97577.97
2023-01-07T18:24:43.522Z,97573.59
2023-01-07T18:27:18.628Z,97575.13
2023-01-07T18:29:49.040Z,97568.91
2023-01-07T18:32:18.569Z,97568.66
2023-01-07T18:34:48.139Z,97560.84
2023-01-07T18:37:18.431Z,97563.00
2023-01-07T18:39:48.569Z,97564.59
2023-01-07T18:42:20.180Z,97562.19
2023-01-07T18:44:49.839Z,97553.06
2023-01-07T18:47:20.009Z,97551.88
2023-01-07T18:49:49.731Z,97552.69
2023-01-07T18:52:20.495Z,97554.31
2023-01-07T18:54:49.141Z,97558.50
2023-01-07T18:57:23.145Z,97557.44
2023-01-07T18:59:52.809Z,97550.16
2023-01-07T19:02:25.639Z,97542.34
2023-01-07T19:04:55.850Z,97528.75
2023-01-07T19:07:26.341Z,97521.66
2023-01-07T19:09:54.949Z,97526.66
2023-01-07T19:12:25.443Z,97524.06
2023-01-07T19:14:54.995Z,97520.03
2023-01-07T19:17:24.731Z,97521.22
2023-01-07T19:19:54.371Z,97518.78
2023-01-07T19:22:23.522Z,97526.03
2023-01-07T19:24:53.967Z,97519.56
2023-01-07T19:27:25.734Z,97524.06
2023-01-07T19:29:55.831Z,97526.41
2023-01-07T19:32:25.065Z,97533.19
2023-01-07T19:34:54.423Z,97534.66
2023-01-07T19:37:25.902Z,97533.47
2023-01-07T19:39:55.659Z,97533.47
2023-01-07T19:42:26.575Z,97535.72
2023-01-07T19:44:55.656Z,97523.38
2023-01-07T19:47:24.357Z,97510.00
2023-01-07T19:49:53.432Z,97520.84
2023-01-07T19:52:23.717Z,97523.44
2023-01-07T19:54:53.699Z,97521.38
2023-01-07T19:57:24.998Z,97532.06
2023-01-07T19:59:54.447Z,97528.09
2023-01-07T20:02:24.833Z,97536.53
2023-01-07T20:04:55.475Z,97547.19
2023-01-07T20:07:25.126Z,97541.03
2023-01-07T20:09:54.507Z,97549.44
2023-01-07T20:12:26.144Z,97548.28
2023-01-07T20:14:56.053Z,97542.91
2023-01-07T20:17:25.868Z,97548.75
2023-01-07T20:19:55.726Z,97546.94
2023-01-07T20:22:25.741Z,97545.94
2023-01-07T20:24:55.334Z,97540.38
2023-01-07T20:27:25.873Z,97544.44
2023-01-07T20:29:54.788Z,97542.44
2023-01-07T20:32:24.769Z,97545.03
2023-01-07T20:34:53.810Z,97538.50
2023-01-07T20:37:24.045Z,97538.31
2023-01-07T20:39:52.446Z,97536.34
2023-01-07T20:42:22.029Z,97534.19
2023-01-07T20:44:54.083Z,97532.19
2023-01-07T20:47:24.831Z,97531.22
2023-01-07T20:49:55.071Z,97540.28
2023-01-07T20:52:24.217Z,97534.72
2023-01-07T20:54:53.264Z,97526.72
2023-01-07T20:57:23.911Z,97525.56
2023-01-07T20:59:54.866Z,97528.75
2023-01-07T21:02:24.763Z,97524.00
2023-01-07T21:04:54.478Z,97519.59
2023-01-07T21:07:25.424Z,97512.84
2023-01-07T21:09:55.626Z,97503.06
2023-01-07T21:12:24.967Z,97498.47
2023-01-07T21:14:56.670Z,97498.09
2023-01-07T21:17:26.869Z,97489.13
2023-01-07T21:19:57.093Z,97491.38
2023-01-07T21:22:26.932Z,97496.19
2023-01-07T21:24:57.111Z,97500.22
2023-01-07T21:27:27.409Z,97497.06
2023-01-07T21:29:57.887Z,97498.31
2023-01-07T21:32:27.655Z,97490.41
2023-01-07T21:34:57.309Z,97488.44
2023-01-07T21:37:28.407Z,97495.69
2023-01-07T21:39:59.369Z,97497.13
2023-01-07T21:42:28.923Z,97497.53
2023-01-07T21:45:00.134Z,97495.00
2023-01-07T21:47:29.896Z,97490.22
2023-01-07T21:49:59.906Z,97486.63
2023-01-07T21:52:29.578Z,97488.66
2023-01-07T21:54:59.046Z,97489.28
2023-01-07T21:57:29.104Z,97498.50
2023-01-07T21:59:59.034Z,97502.53
2023-01-07T22:02:29.718Z,97497.97
2023-01-07T22:05:01.095Z,97490.75
2023-01-07T22:07:31.087Z,97494.75
2023-01-07T22:10:00.200Z,97494.59
2023-01-07T22:12:31.101Z,97486.38
2023-01-07T22:15:02.215Z,97486.22
2023-01-07T22:17:31.643Z,97479.97
2023-01-07T22:20:01.172Z,97482.19
2023-01-07T22:22:30.772Z,97484.81
2023-01-07T22:24:59.176Z,97488.88
2023-01-07T22:27:29.812Z,97490.66
2023-01-07T22:29:58.853Z,97487.66
2023-01-07T22:32:31.734Z,97490.69
2023-01-07T22:35:02.379Z,97483.47
2023-01-07T22:37:30.907Z,97495.75
2023-01-07T22:40:07.258Z,97483.31
2023-01-07T22:42:43.846Z,97490.16
2023-01-07T22:45:20.691Z,97484.72
2023-01-07T22:47:52.987Z,97490.75
2023-01-07T22:50:23.712Z,97492.16
2023-01-07T22:52:54.573Z,97492.16
2023-01-07T22:55:24.269Z,97486.94
2023-01-07T22:57:54.066Z,97493.78
2023-01-07T23:00:41.829Z,97477.94
2023-01-07T23:03:13.478Z,97480.97
2023-01-07T23:05:43.647Z,97478.38
2023-01-07T23:08:13.756Z,97472.78
2023-01-07T23:10:44.229Z,97472.56
2023-01-07T23:13:13.371Z,97462.56
2023-01-07T23:15:42.606Z,97456.53
2023-01-07T23:18:14.373Z,97459.94
2023-01-07T23:20:46.026Z,97446.91
2023-01-07T23:23:15.302Z,97444.94
2023-01-07T23:25:48.456Z,97444.94
2023-01-07T23:28:20.463Z,97436.88
2023-01-07T23:30:51.204Z,97427.91
2023-01-07T23:33:22.515Z,97428.06
2023-01-07T23:35:52.090Z,97412.44
2023-01-07T23:38:22.127Z,97409.63
2023-01-07T23:41:02.978Z,97411.22
2023-01-07T23:43:32.110Z,97407.63
2023-01-07T23:46:02.587Z,97398.81
2023-01-07T23:48:36.648Z,97395.19
2023-01-07T23:51:09.928Z,97391.59
2023-01-07T23:53:39.924Z,97391.59
2023-01-07T23:56:11.019Z,97388.78
2023-01-07T23:58:41.112Z,97388.41
